createdAt,value
2023-01-29T00:00:40.666Z,13
2023-01-29T00:01:40.698Z,12
2023-01-29T00:02:40.653Z,12
2023-01-29T00:03:40.676Z,12
2023-01-29T00:04:40.790Z,12
2023-01-29T00:05:40.731Z,13
2023-01-29T00:06:40.659Z,13
2023-01-29T00:07:40.653Z,13
2023-01-29T00:08:40.659Z,13
2023-01-29T00:09:40.702Z,13
2023-01-29T00:11:40.665Z,14
2023-01-29T00:12:40.722Z,15
2023-01-29T00:13:40.661Z,14
2023-01-29T00:14:40.659Z,13
2023-01-29T00:15:40.645Z,12
2023-01-29T00:16:40.886Z,13
2023-01-29T00:17:40.704Z,13
2023-01-29T00:18:40.684Z,12
2023-01-29T00:19:40.656Z,12
2023-01-29T00:20:40.663Z,12
2023-01-29T00:21:40.640Z,12
2023-01-29T00:22:40.652Z,13
2023-01-29T00:23:40.725Z,12
2023-01-29T00:24:40.655Z,12
2023-01-29T00:25:40.656Z,11
2023-01-29T00:26:40.646Z,12
2023-01-29T00:27:40.657Z,12
2023-01-29T00:28:40.694Z,11
2023-01-29T00:29:40.644Z,12
2023-01-29T00:30:40.640Z,12
2023-01-29T00:31:40.844Z,11
2023-01-29T00:32:40.647Z,11
2023-01-29T00:33:40.669Z,12
2023-01-29T00:34:40.642Z,13
2023-01-29T00:35:40.642Z,12
2023-01-29T00:36:40.637Z,12
2023-01-29T00:37:40.656Z,11
2023-01-29T00:38:40.693Z,12
2023-01-29T00:39:47.855Z,12
2023-01-29T00:40:40.653Z,12
2023-01-29T00:41:40.663Z,12
2023-01-29T00:42:40.708Z,11
2023-01-29T00:43:40.808Z,11
2023-01-29T00:44:40.740Z,11
2023-01-29T00:45:41.848Z,11
2023-01-29T00:46:40.970Z,12
2023-01-29T00:47:40.646Z,12
2023-01-29T00:48:40.686Z,12
2023-01-29T00:49:40.651Z,12
2023-01-29T00:50:40.644Z,12
2023-01-29T00:51:40.632Z,14
2023-01-29T00:52:40.649Z,13
2023-01-29T00:53:40.693Z,12
2023-01-29T00:54:40.636Z,13
2023-01-29T00:55:40.651Z,12
2023-01-29T00:56:40.649Z,12
2023-01-29T00:57:40.663Z,11
2023-01-29T00:58:40.656Z,12
2023-01-29T00:59:40.674Z,12
2023-01-29T01:00:40.695Z,11
2023-01-29T01:01:40.678Z,11
2023-01-29T01:02:40.692Z,12
2023-01-29T01:03:40.753Z,12
2023-01-29T01:04:40.643Z,14
2023-01-29T01:05:40.643Z,14
2023-01-29T01:06:40.691Z,15
2023-01-29T01:07:40.952Z,15
2023-01-29T01:08:40.653Z,15
2023-01-29T01:09:40.632Z,15
2023-01-29T01:10:40.637Z,13
2023-01-29T01:11:40.667Z,12
2023-01-29T01:12:40.707Z,12
2023-01-29T01:13:40.658Z,11
2023-01-29T01:14:40.636Z,12
2023-01-29T01:15:40.653Z,12
2023-01-29T01:16:40.744Z,11
2023-01-29T01:17:40.764Z,11
2023-01-29T01:18:40.729Z,12
2023-01-29T01:19:40.637Z,11
2023-01-29T01:20:40.638Z,11
2023-01-29T01:21:40.646Z,12
2023-01-29T01:22:40.650Z,10
2023-01-29T01:23:40.648Z,12
2023-01-29T01:24:40.631Z,11
2023-01-29T01:25:40.629Z,11
2023-01-29T01:26:40.646Z,11
2023-01-29T01:27:40.640Z,11
2023-01-29T01:28:40.649Z,11
2023-01-29T01:29:40.643Z,11
2023-01-29T01:30:40.692Z,11
2023-01-29T01:31:40.693Z,11
2023-01-29T01:32:40.638Z,11
2023-01-29T01:33:40.663Z,10
2023-01-29T01:34:40.634Z,11
2023-01-29T01:35:40.649Z,11
2023-01-29T01:36:40.637Z,11
2023-01-29T01:37:40.628Z,11
2023-01-29T01:38:40.660Z,11
2023-01-29T01:39:40.662Z,11
2023-01-29T01:40:40.635Z,12
2023-01-29T01:41:40.616Z,12
2023-01-29T01:42:40.693Z,11
2023-01-29T01:43:40.654Z,11
2023-01-29T01:44:40.632Z,11
2023-01-29T01:45:47.929Z,10
2023-01-29T01:46:40.631Z,11
2023-01-29T01:47:40.920Z,11
2023-01-29T01:48:40.659Z,11
2023-01-29T01:49:40.678Z,11
2023-01-29T01:50:40.626Z,11
2023-01-29T01:51:40.652Z,11
2023-01-29T01:52:40.641Z,11
2023-01-29T01:53:40.652Z,11
2023-01-29T01:54:40.627Z,11
2023-01-29T01:55:40.628Z,12
2023-01-29T01:56:40.645Z,12
2023-01-29T01:57:40.679Z,11
2023-01-29T01:58:40.638Z,12
2023-01-29T01:59:40.893Z,11
2023-01-29T02:00:40.692Z,11
2023-01-29T02:01:40.618Z,11
2023-01-29T02:02:40.625Z,12
2023-01-29T02:03:40.656Z,11
2023-01-29T02:04:40.623Z,11
2023-01-29T02:05:40.672Z,11
2023-01-29T02:06:40.630Z,11
2023-01-29T02:07:40.629Z,11
2023-01-29T02:08:40.645Z,12
2023-01-29T02:09:40.628Z,12
2023-01-29T02:10:40.620Z,12
2023-01-29T02:11:40.647Z,12
2023-01-29T02:12:40.628Z,11
2023-01-29T02:13:40.635Z,11
2023-01-29T02:14:40.631Z,12
2023-01-29T02:15:40.624Z,12
2023-01-29T02:16:40.666Z,12
2023-01-29T02:17:40.679Z,10
2023-01-29T02:18:40.663Z,12
2023-01-29T02:19:40.626Z,12
2023-01-29T02:20:40.624Z,11
2023-01-29T02:21:40.610Z,11
2023-01-29T02:22:40.626Z,12
2023-01-29T02:23:40.674Z,12
2023-01-29T02:24:40.661Z,13
2023-01-29T02:25:40.648Z,14
2023-01-29T02:26:40.618Z,13
2023-01-29T02:27:40.613Z,13
2023-01-29T02:28:40.647Z,13
2023-01-29T02:29:40.617Z,13
2023-01-29T02:30:40.678Z,13
2023-01-29T02:31:40.660Z,12
2023-01-29T02:32:40.604Z,13
2023-01-29T02:33:40.645Z,12
2023-01-29T02:34:40.616Z,12
2023-01-29T02:35:40.636Z,11
2023-01-29T02:36:40.623Z,13
2023-01-29T02:37:40.615Z,12
2023-01-29T02:38:40.653Z,12
2023-01-29T02:39:40.625Z,11
2023-01-29T02:40:40.614Z,13
2023-01-29T02:41:40.637Z,12
2023-01-29T02:42:40.604Z,12
2023-01-29T02:43:40.653Z,12
2023-01-29T02:44:40.631Z,12
2023-01-29T02:46:40.607Z,12
2023-01-29T02:47:40.633Z,12
2023-01-29T02:48:40.643Z,11
2023-01-29T02:49:40.634Z,11
2023-01-29T02:50:40.621Z,11
2023-01-29T02:51:40.622Z,11
2023-01-29T02:52:40.621Z,11
2023-01-29T02:53:40.622Z,11
2023-01-29T02:54:40.615Z,11
2023-01-29T02:55:40.624Z,11
2023-01-29T02:56:40.609Z,11
2023-01-29T02:57:40.618Z,12
2023-01-29T02:58:40.604Z,12
2023-01-29T02:59:40.617Z,11
2023-01-29T03:00:40.616Z,12
2023-01-29T03:01:40.624Z,12
2023-01-29T03:02:40.618Z,12
2023-01-29T03:03:40.628Z,10
2023-01-29T03:04:40.610Z,11
2023-01-29T03:05:40.597Z,12
2023-01-29T03:06:40.608Z,12
2023-01-29T03:07:40.610Z,12
2023-01-29T03:08:40.678Z,11
2023-01-29T03:09:40.613Z,12
2023-01-29T03:10:40.630Z,11
2023-01-29T03:11:40.624Z,12
2023-01-29T03:12:40.598Z,12
2023-01-29T03:13:40.604Z,12
2023-01-29T03:14:40.621Z,12
2023-01-29T03:15:40.602Z,12
2023-01-29T03:16:40.666Z,11
2023-01-29T03:17:40.628Z,11
2023-01-29T03:18:40.655Z,11
2023-01-29T03:19:40.616Z,11
2023-01-29T03:20:40.622Z,10
2023-01-29T03:21:40.620Z,12
2023-01-29T03:22:40.629Z,12
2023-01-29T03:23:40.595Z,12
2023-01-29T03:24:40.622Z,10
2023-01-29T03:25:40.683Z,11
2023-01-29T03:26:40.619Z,11
2023-01-29T03:27:40.615Z,12
2023-01-29T03:28:40.603Z,12
2023-01-29T03:29:40.610Z,11
2023-01-29T03:30:40.594Z,11
2023-01-29T03:31:40.812Z,11
2023-01-29T03:32:40.591Z,11
2023-01-29T03:33:40.611Z,12
2023-01-29T03:34:40.602Z,12
2023-01-29T03:35:40.596Z,12
2023-01-29T03:36:40.678Z,12
2023-01-29T03:37:40.735Z,11
2023-01-29T03:38:40.600Z,11
2023-01-29T03:39:40.669Z,11
2023-01-29T03:40:40.742Z,11
2023-01-29T03:41:40.839Z,11
2023-01-29T03:42:40.657Z,12
2023-01-29T03:43:40.615Z,11
2023-01-29T03:44:40.877Z,12
2023-01-29T03:45:40.698Z,11
2023-01-29T03:46:40.671Z,11
2023-01-29T03:47:40.630Z,11
2023-01-29T03:48:40.674Z,12
2023-01-29T03:49:40.607Z,12
2023-01-29T03:50:40.605Z,11
2023-01-29T03:51:40.605Z,11
2023-01-29T03:52:40.590Z,10
2023-01-29T03:53:40.589Z,12
2023-01-29T03:54:40.627Z,12
2023-01-29T03:55:40.597Z,12
2023-01-29T03:56:40.774Z,12
2023-01-29T03:57:40.606Z,12
2023-01-29T03:58:40.619Z,11
2023-01-29T03:59:40.622Z,13
2023-01-29T04:00:40.631Z,12
2023-01-29T04:01:40.658Z,13
2023-01-29T04:02:40.594Z,12
2023-01-29T04:03:40.600Z,12
2023-01-29T04:04:40.608Z,12
2023-01-29T04:05:40.607Z,11
2023-01-29T04:06:40.594Z,11
2023-01-29T04:07:40.604Z,11
2023-01-29T04:08:40.609Z,11
2023-01-29T04:09:40.606Z,11
2023-01-29T04:10:40.608Z,11
2023-01-29T04:11:40.579Z,11
2023-01-29T04:12:40.597Z,12
2023-01-29T04:13:40.587Z,11
2023-01-29T04:14:40.604Z,9
2023-01-29T04:15:40.664Z,10
2023-01-29T04:16:40.648Z,11
2023-01-29T04:17:40.579Z,11
2023-01-29T04:18:40.624Z,11
2023-01-29T04:19:40.619Z,11
2023-01-29T04:20:40.592Z,11
2023-01-29T04:21:40.582Z,11
2023-01-29T04:22:40.588Z,9
2023-01-29T04:23:40.584Z,11
2023-01-29T04:24:40.609Z,12
2023-01-29T04:25:40.585Z,11
2023-01-29T04:26:40.582Z,10
2023-01-29T04:27:40.576Z,11
2023-01-29T04:28:40.586Z,10
2023-01-29T04:29:40.586Z,11
2023-01-29T04:30:40.660Z,11
2023-01-29T04:31:40.728Z,11
2023-01-29T04:32:40.590Z,11
2023-01-29T04:33:40.628Z,11
2023-01-29T04:34:40.613Z,10
2023-01-29T04:35:40.599Z,11
2023-01-29T04:36:40.579Z,10
2023-01-29T04:37:40.585Z,12
2023-01-29T04:38:40.595Z,11
2023-01-29T04:39:40.596Z,11
2023-01-29T04:40:40.574Z,9
2023-01-29T04:41:40.575Z,12
2023-01-29T04:42:40.579Z,11
2023-01-29T04:43:40.578Z,11
2023-01-29T04:44:40.615Z,12
2023-01-29T04:45:40.608Z,10
2023-01-29T04:46:40.577Z,11
2023-01-29T04:47:40.671Z,12
2023-01-29T04:48:40.595Z,11
2023-01-29T04:49:40.603Z,11
2023-01-29T04:50:40.599Z,12
2023-01-29T04:51:40.588Z,10
2023-01-29T04:52:40.634Z,13
2023-01-29T04:53:40.579Z,13
2023-01-29T04:54:40.591Z,12
2023-01-29T04:55:40.604Z,13
2023-01-29T04:56:40.588Z,11
2023-01-29T04:57:40.592Z,13
2023-01-29T04:58:40.576Z,12
2023-01-29T04:59:40.588Z,12
2023-01-29T05:00:40.614Z,11
2023-01-29T05:01:40.695Z,12
2023-01-29T05:03:40.601Z,11
2023-01-29T05:04:40.611Z,9
2023-01-29T05:05:40.570Z,11
2023-01-29T05:06:40.592Z,12
2023-01-29T05:07:40.584Z,12
2023-01-29T05:08:40.601Z,11
2023-01-29T05:09:40.584Z,12
2023-01-29T05:10:40.577Z,11
2023-01-29T05:11:40.582Z,11
2023-01-29T05:12:40.589Z,11
2023-01-29T05:13:40.589Z,11
2023-01-29T05:14:40.587Z,12
2023-01-29T05:15:40.811Z,12
2023-01-29T05:16:40.564Z,12
2023-01-29T05:17:40.575Z,11
2023-01-29T05:18:40.583Z,12
2023-01-29T05:19:40.598Z,13
2023-01-29T05:20:40.586Z,12
2023-01-29T05:21:41.247Z,12
2023-01-29T05:22:40.570Z,13
2023-01-29T05:23:40.586Z,11
2023-01-29T05:24:40.594Z,13
2023-01-29T05:25:40.569Z,12
2023-01-29T05:26:40.579Z,12
2023-01-29T05:27:40.595Z,10
2023-01-29T05:28:40.579Z,12
2023-01-29T05:29:40.578Z,12
2023-01-29T05:30:40.600Z,14
2023-01-29T05:31:40.602Z,11
2023-01-29T05:32:40.587Z,12
2023-01-29T05:33:40.593Z,13
2023-01-29T05:34:40.907Z,13
2023-01-29T05:35:40.575Z,13
2023-01-29T05:36:40.567Z,12
2023-01-29T05:37:40.572Z,13
2023-01-29T05:38:40.580Z,13
2023-01-29T05:39:40.592Z,13
2023-01-29T05:40:40.575Z,13
2023-01-29T05:41:40.567Z,10
2023-01-29T05:42:40.561Z,12
2023-01-29T05:43:40.585Z,13
2023-01-29T05:44:40.570Z,13
2023-01-29T05:45:40.579Z,11
2023-01-29T05:46:40.613Z,12
2023-01-29T05:47:40.562Z,12
2023-01-29T05:48:40.574Z,10
2023-01-29T05:49:40.587Z,12
2023-01-29T05:50:40.550Z,13
2023-01-29T05:51:40.564Z,14
2023-01-29T05:52:40.556Z,12
2023-01-29T05:53:40.577Z,10
2023-01-29T05:54:40.753Z,12
2023-01-29T05:55:40.561Z,11
2023-01-29T05:56:40.563Z,12
2023-01-29T05:57:40.563Z,11
2023-01-29T05:58:40.550Z,11
2023-01-29T05:59:40.581Z,11
2023-01-29T06:00:40.560Z,11
2023-01-29T06:01:40.568Z,10
2023-01-29T06:02:40.590Z,11
2023-01-29T06:03:40.587Z,11
2023-01-29T06:04:40.579Z,12
2023-01-29T06:05:40.584Z,12
2023-01-29T06:06:40.551Z,12
2023-01-29T06:07:42.910Z,11
2023-01-29T06:08:40.573Z,11
2023-01-29T06:09:40.594Z,12
2023-01-29T06:10:40.560Z,10
2023-01-29T06:11:40.575Z,11
2023-01-29T06:12:40.554Z,12
2023-01-29T06:13:40.574Z,12
2023-01-29T06:14:40.573Z,11
2023-01-29T06:15:40.563Z,12
2023-01-29T06:16:40.564Z,12
2023-01-29T06:17:40.700Z,12
2023-01-29T06:18:40.587Z,11
2023-01-29T06:19:40.579Z,12
2023-01-29T06:20:40.557Z,14
2023-01-29T06:21:40.551Z,14
2023-01-29T06:22:40.554Z,14
2023-01-29T06:23:40.627Z,14
2023-01-29T06:24:40.573Z,15
2023-01-29T06:25:40.561Z,15
2023-01-29T06:26:40.553Z,16
2023-01-29T06:27:40.556Z,15
2023-01-29T06:28:40.578Z,15
2023-01-29T06:29:40.572Z,15
2023-01-29T06:30:40.575Z,15
2023-01-29T06:31:40.700Z,13
2023-01-29T06:32:40.601Z,14
2023-01-29T06:33:40.567Z,14
2023-01-29T06:34:40.575Z,12
2023-01-29T06:35:40.550Z,15
2023-01-29T06:37:40.545Z,15
2023-01-29T06:38:40.565Z,14
2023-01-29T06:39:40.554Z,13
2023-01-29T06:40:40.555Z,14
2023-01-29T06:41:40.559Z,14
2023-01-29T06:42:40.551Z,15
2023-01-29T06:43:40.562Z,16
2023-01-29T06:44:40.549Z,14
2023-01-29T06:45:40.602Z,13
2023-01-29T06:46:40.535Z,14
2023-01-29T06:47:40.571Z,13
2023-01-29T06:48:40.596Z,12
2023-01-29T06:49:40.556Z,12
2023-01-29T06:50:40.563Z,13
2023-01-29T06:51:40.554Z,12
2023-01-29T06:52:40.551Z,12
2023-01-29T06:53:40.568Z,12
2023-01-29T06:54:40.562Z,13
2023-01-29T06:55:40.555Z,10
2023-01-29T06:56:40.549Z,12
2023-01-29T06:57:40.560Z,12
2023-01-29T06:58:40.560Z,12
2023-01-29T06:59:40.551Z,11
2023-01-29T07:00:40.584Z,13
2023-01-29T07:01:40.599Z,12
2023-01-29T07:02:40.549Z,12
2023-01-29T07:03:40.555Z,12
2023-01-29T07:04:40.549Z,12
2023-01-29T07:05:40.594Z,13
2023-01-29T07:06:40.548Z,12
2023-01-29T07:07:40.542Z,11
2023-01-29T07:08:40.565Z,12
2023-01-29T07:09:40.563Z,13
2023-01-29T07:10:40.565Z,12
2023-01-29T07:11:40.542Z,11
2023-01-29T07:12:40.560Z,12
2023-01-29T07:13:40.541Z,11
2023-01-29T07:14:40.534Z,12
2023-01-29T07:15:40.606Z,12
2023-01-29T07:16:40.621Z,12
2023-01-29T07:17:40.554Z,12
2023-01-29T07:18:40.570Z,13
2023-01-29T07:19:40.690Z,13
2023-01-29T07:20:40.555Z,13
2023-01-29T07:21:40.556Z,14
2023-01-29T07:22:40.537Z,15
2023-01-29T07:23:40.573Z,14
2023-01-29T07:24:40.535Z,13
2023-01-29T07:25:40.560Z,16
2023-01-29T07:26:40.550Z,16
2023-01-29T07:27:40.530Z,17
2023-01-29T07:28:40.543Z,16
2023-01-29T07:29:40.570Z,16
2023-01-29T07:30:45.568Z,16
2023-01-29T07:31:40.746Z,15
2023-01-29T07:32:40.534Z,16
2023-01-29T07:33:40.538Z,14
2023-01-29T07:34:40.532Z,14
2023-01-29T07:35:40.554Z,15
2023-01-29T07:36:40.677Z,14
2023-01-29T07:37:40.538Z,15
2023-01-29T07:38:40.529Z,14
2023-01-29T07:39:40.534Z,14
2023-01-29T07:40:40.544Z,14
2023-01-29T07:41:40.539Z,15
2023-01-29T07:42:40.523Z,14
2023-01-29T07:43:40.566Z,15
2023-01-29T07:44:40.525Z,14
2023-01-29T07:45:40.589Z,15
2023-01-29T07:46:40.562Z,15
2023-01-29T07:47:40.557Z,15
2023-01-29T07:48:40.545Z,14
2023-01-29T07:49:40.532Z,17
2023-01-29T07:50:40.555Z,14
2023-01-29T07:51:40.544Z,14
2023-01-29T07:52:40.534Z,15
2023-01-29T07:53:40.540Z,16
2023-01-29T07:54:40.531Z,15
2023-01-29T07:55:40.564Z,16
2023-01-29T07:56:40.535Z,18
2023-01-29T07:57:40.527Z,15
2023-01-29T07:58:40.530Z,16
2023-01-29T07:59:40.529Z,17
2023-01-29T08:00:40.539Z,17
2023-01-29T08:01:40.537Z,17
2023-01-29T08:02:40.524Z,15
2023-01-29T08:03:40.541Z,17
2023-01-29T08:04:40.537Z,17
2023-01-29T08:05:40.537Z,16
2023-01-29T08:06:40.521Z,15
2023-01-29T08:07:40.529Z,15
2023-01-29T08:08:40.781Z,15
2023-01-29T08:09:40.534Z,17
2023-01-29T08:10:40.551Z,15
2023-01-29T08:11:40.518Z,15
2023-01-29T08:12:40.524Z,15
2023-01-29T08:13:40.536Z,17
2023-01-29T08:14:40.601Z,15
2023-01-29T08:15:40.544Z,15
2023-01-29T08:16:40.629Z,15
2023-01-29T08:17:56.021Z,16
2023-01-29T08:18:40.523Z,18
2023-01-29T08:19:40.562Z,18
2023-01-29T08:20:40.535Z,17
2023-01-29T08:21:40.525Z,17
2023-01-29T08:22:40.527Z,17
2023-01-29T08:23:40.739Z,17
2023-01-29T08:24:53.569Z,18
2023-01-29T08:25:40.636Z,17
2023-01-29T08:26:40.529Z,16
2023-01-29T08:27:40.521Z,15
2023-01-29T08:28:40.524Z,15
2023-01-29T08:29:40.539Z,17
2023-01-29T08:30:40.632Z,15
2023-01-29T08:31:40.568Z,15
2023-01-29T08:32:40.521Z,16
2023-01-29T08:33:40.514Z,16
2023-01-29T08:34:40.534Z,17
2023-01-29T08:35:40.549Z,18
2023-01-29T08:36:40.526Z,17
2023-01-29T08:37:40.523Z,16
2023-01-29T08:38:40.529Z,20
2023-01-29T08:40:40.534Z,16
2023-01-29T08:41:40.514Z,18
2023-01-29T08:42:40.526Z,18
2023-01-29T08:43:40.550Z,19
2023-01-29T08:44:40.517Z,19
2023-01-29T08:45:40.588Z,18
2023-01-29T08:46:40.516Z,16
2023-01-29T08:47:40.551Z,17
2023-01-29T08:48:40.544Z,18
2023-01-29T08:49:40.533Z,19
2023-01-29T08:50:40.524Z,17
2023-01-29T08:51:40.519Z,18
2023-01-29T08:52:40.520Z,19
2023-01-29T08:53:40.513Z,18
2023-01-29T08:54:40.518Z,17
2023-01-29T08:55:40.525Z,16
2023-01-29T08:56:40.514Z,18
2023-01-29T08:57:40.516Z,19
2023-01-29T08:58:40.508Z,17
2023-01-29T08:59:40.518Z,16
2023-01-29T09:00:40.539Z,18
2023-01-29T09:01:40.519Z,17
2023-01-29T09:02:40.572Z,17
2023-01-29T09:03:40.516Z,19
2023-01-29T09:04:40.658Z,17
2023-01-29T09:05:40.527Z,17
2023-01-29T09:06:40.845Z,17
2023-01-29T09:07:40.520Z,19
2023-01-29T09:08:40.600Z,19
2023-01-29T09:09:40.534Z,17
2023-01-29T09:10:40.552Z,17
2023-01-29T09:11:40.516Z,17
2023-01-29T09:12:40.588Z,18
2023-01-29T09:13:40.523Z,17
2023-01-29T09:14:40.535Z,17
2023-01-29T09:15:40.565Z,19
2023-01-29T09:16:40.830Z,17
2023-01-29T09:17:40.516Z,18
2023-01-29T09:19:40.532Z,17
2023-01-29T09:20:40.534Z,19
2023-01-29T09:21:40.518Z,16
2023-01-29T09:22:40.547Z,19
2023-01-29T09:23:40.523Z,17
2023-01-29T09:24:40.520Z,17
2023-01-29T09:25:40.612Z,20
2023-01-29T09:26:40.564Z,19
2023-01-29T09:27:40.621Z,18
2023-01-29T09:28:40.504Z,19
2023-01-29T09:29:40.505Z,18
2023-01-29T09:30:40.807Z,17
2023-01-29T09:31:40.603Z,19
2023-01-29T09:32:56.025Z,22
2023-01-29T09:33:40.512Z,18
2023-01-29T09:34:40.531Z,17
2023-01-29T09:35:40.519Z,20
2023-01-29T09:36:40.521Z,19
2023-01-29T09:37:40.523Z,19
2023-01-29T09:38:40.523Z,19
2023-01-29T09:39:40.518Z,19
2023-01-29T09:40:40.534Z,19
2023-01-29T09:41:40.541Z,19
2023-01-29T09:42:40.517Z,18
2023-01-29T09:43:40.541Z,19
2023-01-29T09:44:40.520Z,20
2023-01-29T09:45:40.530Z,19
2023-01-29T09:46:40.506Z,19
2023-01-29T09:47:40.500Z,19
2023-01-29T09:48:40.520Z,19
2023-01-29T09:49:40.528Z,20
2023-01-29T09:50:40.522Z,21
2023-01-29T09:51:40.505Z,20
2023-01-29T09:52:40.510Z,18
2023-01-29T09:53:40.503Z,18
2023-01-29T09:54:40.509Z,20
2023-01-29T09:55:40.533Z,18
2023-01-29T09:56:40.515Z,20
2023-01-29T09:57:40.501Z,19
2023-01-29T09:58:40.507Z,20
2023-01-29T09:59:40.511Z,20
2023-01-29T10:00:40.543Z,20
2023-01-29T10:01:40.641Z,19
2023-01-29T10:02:40.504Z,20
2023-01-29T10:03:40.509Z,18
2023-01-29T10:04:40.577Z,18
2023-01-29T10:05:40.520Z,18
2023-01-29T10:06:46.978Z,20
2023-01-29T10:07:40.511Z,19
2023-01-29T10:08:40.504Z,20
2023-01-29T10:09:40.501Z,17
2023-01-29T10:10:40.528Z,20
2023-01-29T10:11:40.503Z,20
2023-01-29T10:12:40.506Z,19
2023-01-29T10:13:40.532Z,18
2023-01-29T10:14:40.501Z,19
2023-01-29T10:15:40.515Z,19
2023-01-29T10:16:40.515Z,20
2023-01-29T10:17:40.513Z,20
2023-01-29T10:18:40.507Z,20
2023-01-29T10:19:40.536Z,21
2023-01-29T10:20:40.543Z,19
2023-01-29T10:21:40.502Z,18
2023-01-29T10:22:40.507Z,22
2023-01-29T10:23:40.501Z,19
2023-01-29T10:24:40.498Z,21
2023-01-29T10:25:40.520Z,20
2023-01-29T10:26:40.628Z,19
2023-01-29T10:27:40.498Z,19
2023-01-29T10:28:40.507Z,20
2023-01-29T10:29:40.507Z,21
2023-01-29T10:30:40.513Z,19
2023-01-29T10:31:40.648Z,20
2023-01-29T10:32:40.520Z,20
2023-01-29T10:33:49.162Z,21
2023-01-29T10:34:40.513Z,20
2023-01-29T10:35:40.507Z,20
2023-01-29T10:36:40.502Z,20
2023-01-29T10:37:40.500Z,19
2023-01-29T10:38:40.494Z,20
2023-01-29T10:39:40.495Z,20
2023-01-29T10:40:40.523Z,20
2023-01-29T10:41:40.515Z,19
2023-01-29T10:42:40.574Z,20
2023-01-29T10:43:40.531Z,21
2023-01-29T10:44:40.517Z,20
2023-01-29T10:45:40.709Z,20
2023-01-29T10:46:40.490Z,20
2023-01-29T10:47:40.806Z,20
2023-01-29T10:48:40.508Z,20
2023-01-29T10:49:40.524Z,20
2023-01-29T10:50:40.515Z,17
2023-01-29T10:51:40.491Z,21
2023-01-29T10:52:40.507Z,20
2023-01-29T10:53:40.492Z,18
2023-01-29T10:54:40.501Z,20
2023-01-29T10:55:40.504Z,21
2023-01-29T10:56:40.495Z,18
2023-01-29T10:57:40.497Z,19
2023-01-29T10:58:40.497Z,20
2023-01-29T10:59:40.584Z,19
2023-01-29T11:00:40.517Z,16
2023-01-29T11:01:40.582Z,20
2023-01-29T11:02:40.538Z,19
2023-01-29T11:03:40.585Z,17
2023-01-29T11:04:40.519Z,19
2023-01-29T11:05:40.514Z,18
2023-01-29T11:07:40.492Z,18
2023-01-29T11:08:40.497Z,18
2023-01-29T11:09:40.496Z,18
2023-01-29T11:10:40.513Z,17
2023-01-29T11:11:40.561Z,18
2023-01-29T11:12:40.494Z,17
2023-01-29T11:13:40.502Z,19
2023-01-29T11:14:40.491Z,20
2023-01-29T11:16:40.504Z,19
2023-01-29T11:17:41.772Z,19
2023-01-29T11:18:40.496Z,19
2023-01-29T11:19:40.512Z,17
2023-01-29T11:20:40.497Z,19
2023-01-29T11:21:40.541Z,18
2023-01-29T11:22:40.501Z,16
2023-01-29T11:23:40.499Z,16
2023-01-29T11:24:40.497Z,17
2023-01-29T11:25:40.493Z,17
2023-01-29T11:26:40.642Z,16
2023-01-29T11:27:40.494Z,18
2023-01-29T11:28:40.512Z,18
2023-01-29T11:29:40.526Z,18
2023-01-29T11:30:40.563Z,16
2023-01-29T11:31:40.523Z,18
2023-01-29T11:32:40.491Z,17
2023-01-29T11:33:40.486Z,17
2023-01-29T11:34:40.496Z,16
2023-01-29T11:35:40.497Z,17
2023-01-29T11:36:40.498Z,16
2023-01-29T11:37:40.491Z,17
2023-01-29T11:38:40.494Z,17
2023-01-29T11:39:40.488Z,17
2023-01-29T11:40:40.505Z,17
2023-01-29T11:41:40.507Z,17
2023-01-29T11:42:40.500Z,17
2023-01-29T11:43:40.518Z,18
2023-01-29T11:44:40.499Z,17
2023-01-29T11:45:40.498Z,15
2023-01-29T11:46:40.544Z,17
2023-01-29T11:47:40.587Z,17
2023-01-29T11:48:40.495Z,17
2023-01-29T11:49:40.518Z,16
2023-01-29T11:50:40.490Z,18
2023-01-29T11:51:40.504Z,16
2023-01-29T11:52:40.493Z,17
2023-01-29T11:53:40.489Z,17
2023-01-29T11:54:40.493Z,15
2023-01-29T11:55:50.315Z,17
2023-01-29T11:56:40.563Z,17
2023-01-29T11:57:40.483Z,17
2023-01-29T11:58:40.492Z,17
2023-01-29T11:59:40.488Z,18
2023-01-29T12:00:40.485Z,16
2023-01-29T12:01:40.485Z,16
2023-01-29T12:02:40.485Z,18
2023-01-29T12:03:40.554Z,17
2023-01-29T12:04:40.538Z,17
2023-01-29T12:05:40.565Z,18
2023-01-29T12:06:40.498Z,19
2023-01-29T12:07:40.495Z,18
2023-01-29T12:08:40.500Z,17
2023-01-29T12:09:40.487Z,17
2023-01-29T12:10:40.489Z,17
2023-01-29T12:11:40.492Z,17
2023-01-29T12:12:40.478Z,16
2023-01-29T12:13:40.479Z,17
2023-01-29T12:14:40.488Z,18
2023-01-29T12:15:40.502Z,17
2023-01-29T12:16:40.516Z,15
2023-01-29T12:17:40.490Z,19
2023-01-29T12:18:40.489Z,17
2023-01-29T12:19:40.511Z,18
2023-01-29T12:20:40.486Z,16
2023-01-29T12:21:40.495Z,17
2023-01-29T12:22:40.485Z,16
2023-01-29T12:23:40.481Z,16
2023-01-29T12:24:40.488Z,19
2023-01-29T12:25:40.493Z,16
2023-01-29T12:26:40.573Z,17
2023-01-29T12:27:40.745Z,17
2023-01-29T12:28:40.481Z,17
2023-01-29T12:29:40.485Z,16
2023-01-29T12:30:40.503Z,19
2023-01-29T12:31:40.552Z,19
2023-01-29T12:32:40.504Z,16
2023-01-29T12:33:40.493Z,19
2023-01-29T12:34:40.498Z,17
2023-01-29T12:35:40.473Z,17
2023-01-29T12:36:40.573Z,17
2023-01-29T12:37:40.490Z,18
2023-01-29T12:38:40.493Z,19
2023-01-29T12:39:40.491Z,17
2023-01-29T12:40:40.495Z,18
2023-01-29T12:41:40.512Z,18
2023-01-29T12:42:40.491Z,17
2023-01-29T12:43:40.486Z,17
2023-01-29T12:44:40.475Z,17
2023-01-29T12:45:40.470Z,18
2023-01-29T12:46:40.519Z,19
2023-01-29T12:47:40.487Z,18
2023-01-29T12:48:40.494Z,18
2023-01-29T12:49:40.509Z,18
2023-01-29T12:50:40.506Z,18
2023-01-29T12:51:40.511Z,18
2023-01-29T12:52:40.483Z,17
2023-01-29T12:53:40.531Z,17
2023-01-29T12:54:40.495Z,18
2023-01-29T12:55:40.476Z,17
2023-01-29T12:56:40.496Z,17
2023-01-29T12:57:40.535Z,18
2023-01-29T12:58:40.485Z,19
2023-01-29T12:59:40.482Z,18
2023-01-29T13:00:40.624Z,17
2023-01-29T13:01:40.509Z,17
2023-01-29T13:02:40.480Z,18
2023-01-29T13:03:40.500Z,17
2023-01-29T13:04:40.509Z,18
2023-01-29T13:05:40.491Z,17
2023-01-29T13:06:40.472Z,18
2023-01-29T13:07:40.569Z,18
2023-01-29T13:08:40.479Z,17
2023-01-29T13:09:40.477Z,18
2023-01-29T13:10:40.483Z,15
2023-01-29T13:11:40.496Z,16
2023-01-29T13:12:40.490Z,17
2023-01-29T13:13:40.473Z,17
2023-01-29T13:14:40.478Z,18
2023-01-29T13:15:40.473Z,17
2023-01-29T13:16:40.516Z,18
2023-01-29T13:17:40.497Z,16
2023-01-29T13:18:40.570Z,18
2023-01-29T13:19:40.463Z,18
2023-01-29T13:20:40.475Z,18
2023-01-29T13:21:40.478Z,17
2023-01-29T13:22:40.703Z,17
2023-01-29T13:23:40.477Z,17
2023-01-29T13:24:40.476Z,16
2023-01-29T13:25:40.492Z,17
2023-01-29T13:26:40.536Z,16
2023-01-29T13:27:40.635Z,16
2023-01-29T13:28:40.485Z,17
2023-01-29T13:29:40.480Z,17
2023-01-29T13:30:40.585Z,17
2023-01-29T13:31:40.537Z,16
2023-01-29T13:32:40.503Z,17
2023-01-29T13:33:40.470Z,16
2023-01-29T13:34:40.473Z,16
2023-01-29T13:35:40.481Z,15
2023-01-29T13:36:40.509Z,16
2023-01-29T13:37:40.525Z,16
2023-01-29T13:38:40.480Z,16
2023-01-29T13:39:40.508Z,15
2023-01-29T13:40:40.490Z,15
2023-01-29T13:41:40.488Z,14
2023-01-29T13:42:40.508Z,14
2023-01-29T13:43:40.480Z,15
2023-01-29T13:44:40.479Z,15
2023-01-29T13:45:40.595Z,15
2023-01-29T13:46:40.510Z,15
2023-01-29T13:47:40.489Z,16
2023-01-29T13:48:40.470Z,14
2023-01-29T13:49:40.463Z,14
2023-01-29T13:50:40.495Z,14
2023-01-29T13:51:40.479Z,15
2023-01-29T13:52:40.496Z,14
2023-01-29T13:53:40.465Z,14
2023-01-29T13:54:40.536Z,15
2023-01-29T13:55:40.492Z,14
2023-01-29T13:56:40.479Z,14
2023-01-29T13:57:40.491Z,14
2023-01-29T13:58:40.475Z,14
2023-01-29T13:59:40.474Z,14
2023-01-29T14:00:40.515Z,14
2023-01-29T14:01:40.471Z,14
2023-01-29T14:02:40.525Z,14
2023-01-29T14:03:56.692Z,15
2023-01-29T14:04:40.469Z,13
2023-01-29T14:05:40.497Z,14
2023-01-29T14:06:40.472Z,13
2023-01-29T14:07:40.505Z,13
2023-01-29T14:08:40.479Z,14
2023-01-29T14:09:40.471Z,14
2023-01-29T14:10:40.476Z,14
2023-01-29T14:11:40.472Z,13
2023-01-29T14:12:40.507Z,13
2023-01-29T14:13:40.477Z,14
2023-01-29T14:14:40.467Z,14
2023-01-29T14:15:40.497Z,14
2023-01-29T14:16:40.576Z,14
2023-01-29T14:17:40.520Z,12
2023-01-29T14:18:40.477Z,13
2023-01-29T14:19:40.475Z,13
2023-01-29T14:20:45.927Z,14
2023-01-29T14:21:40.466Z,14
2023-01-29T14:22:40.557Z,14
2023-01-29T14:23:40.521Z,14